Come By Chance, Canada
Current Conditions -  °F | °C
As of 8:00 AM on Friday 31 Oct 2014 (Local Time) from CYYT Reporting Station
Broken Clouds Broken Clouds  
Wind Chill: 37°   Ceiling: 19000
Heat Index: 43°   Visibility: 15mi
Dew Point: 39°   Wind: 10mph
Humidity: 87%   Direction: 290°WNW
Pressure: 29.81"   Gusts: NA
Location:  47.85°N, 53.98°W
Report Text: CYYT 311000Z 29009KT 15SM SCT022 BKN190 06/04 A2981 RMK SC3AC4 SLP097
Loading
Personal Weather Stations






























Interactive Weather Map
Tropical Storm Tracking
New forecast layout! Learn more

10-Day Weather Forecast

Advertisements
Track Severe Weather on mobile